الصفحة الرئيسية
METAR-TAF:

METAR-TAF

مطار :

بغداد, العراق

مطار بغداد الدولي

دائرة عرض: 33-15-45N, خط طول: 44-14-04E, ارتفاع: 35 متر

مراقبة الطقس الحالي

تاريخ ووقت الإصدار 15 دقيقة قبل الساعة 11:00UTC
ريح 3 عقدة من الجنوب, الاتجاه يتراوح بين الشرق و الجنوب الغربي
درجة الحرارة 16°درجة مئوية
الرطوبة 42%
ضغط 1016 hPa
الرؤية 10 كم أو أكثر
الغيوم لا تقل 1500 م ولا وجود لمزنة ركامية السحاب الأسود

METAR: ORBI 171100Z 18003KT 100V220 CAVOK 16/03 Q1016

زمن: 14:15 (11:15 UTC)

توقعات

تاريخ ووقت الإصدار 7ساعات و 15 دقيقة قبل الساعة 04:00UTC
التوقعات صالحة من17 الساعة 06 UTC إلى 18 الساعة 06 UTC
ريح 3 عقدةمن اتجاهات متغيرة
الرؤية 10 كم أو أكثر
الغيوم لا تقل 1500 م ولا وجود لمزنة ركامية السحاب الأسود
أصبح
من 17 الساعة 14 UTC إلى 17 الساعة 16 UTC
ريح 8 عقدة من الشرق/الجنوب الشرقي
أصبح
من 18 الساعة 00 UTC إلى 18 الساعة 02 UTC
غيوم متفرقة على ارتفاع 3000 قدم
غيوم متفرقة على ارتفاع 8000 قدم

TAF: ORBI 170400Z 1706/1806 VRB03KT CAVOK BECMG 1714/1716 12008KT BECMG 1800/1802 SCT030 SCT080

أرصاد الطقس والتوقعات من أكثر من 4000 مطار (تقارير الطقس للمطار METAR والتنبؤ بالطقس بالمطارTAF).

المحطات المتاحة هي النقط الصفراء والحمراء على الخريطة.

حرك المؤشر فوق النقطة لمعرفة اسم المحطة.

ثم انقر لمعرفة أرصاد وتوقعات الطقس.

لتغيير الخارطة: اضغط على الأزرار الخضراء مع رمز الصليب الأسود للتكبير. على الزر الأخضر مع شرطة للتصغير، أو على الأسهم الخضراء للخرائط المجاورة.


METAR-TAF: